sensor_id;sensor_type;location;lat;lon;timestamp;P1;durP1;ratioP1;P2;durP2;ratioP2
50417;SDS011;36346;48.280;14.292;2023-04-15T00:01:43;3.95;;;3.95;;
50417;SDS011;36346;48.280;14.292;2023-04-15T00:04:11;3.93;;;3.93;;
50417;SDS011;36346;48.280;14.292;2023-04-15T00:06:39;4.15;;;4.15;;
50417;SDS011;36346;48.280;14.292;2023-04-15T00:09:07;4.17;;;4.17;;
50417;SDS011;36346;48.280;14.292;2023-04-15T00:11:35;4.06;;;4.06;;
50417;SDS011;36346;48.280;14.292;2023-04-15T00:14:03;4.00;;;4.00;;
50417;SDS011;36346;48.280;14.292;2023-04-15T00:16:31;3.71;;;3.71;;
50417;SDS011;36346;48.280;14.292;2023-04-15T00:18:59;3.84;;;3.84;;
50417;SDS011;36346;48.280;14.292;2023-04-15T00:21:27;4.10;;;4.10;;
50417;SDS011;36346;48.280;14.292;2023-04-15T00:23:55;3.63;;;3.63;;
50417;SDS011;36346;48.280;14.292;2023-04-15T00:26:23;3.55;;;3.55;;
50417;SDS011;36346;48.280;14.292;2023-04-15T00:28:51;3.34;;;3.34;;
50417;SDS011;36346;48.280;14.292;2023-04-15T00:31:20;2.94;;;2.94;;
50417;SDS011;36346;48.280;14.292;2023-04-15T00:33:48;3.36;;;3.36;;
50417;SDS011;36346;48.280;14.292;2023-04-15T00:36:16;2.93;;;2.93;;
50417;SDS011;36346;48.280;14.292;2023-04-15T00:38:44;2.82;;;2.82;;
50417;SDS011;36346;48.280;14.292;2023-04-15T00:41:12;2.66;;;2.66;;
50417;SDS011;36346;48.280;14.292;2023-04-15T00:43:41;2.72;;;2.72;;
50417;SDS011;36346;48.280;14.292;2023-04-15T00:46:10;3.02;;;3.02;;
50417;SDS011;36346;48.280;14.292;2023-04-15T00:48:39;2.47;;;2.47;;
50417;SDS011;36346;48.280;14.292;2023-04-15T00:51:07;2.57;;;2.57;;
50417;SDS011;36346;48.280;14.292;2023-04-15T00:53:36;2.68;;;2.68;;
50417;SDS011;36346;48.280;14.292;2023-04-15T00:56:04;2.15;;;2.15;;
50417;SDS011;36346;48.280;14.292;2023-04-15T00:58:33;2.09;;;2.09;;
50417;SDS011;36346;48.280;14.292;2023-04-15T01:01:01;1.94;;;1.94;;
50417;SDS011;36346;48.280;14.292;2023-04-15T01:03:29;1.40;;;1.40;;
50417;SDS011;36346;48.280;14.292;2023-04-15T01:05:57;1.60;;;1.60;;
50417;SDS011;36346;48.280;14.292;2023-04-15T01:08:30;1.57;;;1.57;;
50417;SDS011;36346;48.280;14.292;2023-04-15T01:11:00;1.72;;;1.72;;
50417;SDS011;36346;48.280;14.292;2023-04-15T01:13:30;1.49;;;1.49;;
50417;SDS011;36346;48.280;14.292;2023-04-15T01:16:00;1.59;;;1.59;;
50417;SDS011;36346;48.280;14.292;2023-04-15T01:18:29;1.47;;;1.47;;
50417;SDS011;36346;48.280;14.292;2023-04-15T01:21:02;1.40;;;1.40;;
50417;SDS011;36346;48.280;14.292;2023-04-15T01:23:32;1.45;;;1.45;;
50417;SDS011;36346;48.280;14.292;2023-04-15T01:26:04;1.43;;;1.43;;
50417;SDS011;36346;48.280;14.292;2023-04-15T01:28:38;1.40;;;1.40;;
50417;SDS011;36346;48.280;14.292;2023-04-15T01:33:37;1.10;;;1.10;;
50417;SDS011;36346;48.280;14.292;2023-04-15T01:36:24;0.99;;;0.99;;
50417;SDS011;36346;48.280;14.292;2023-04-15T01:38:53;1.00;;;1.00;;
50417;SDS011;36346;48.280;14.292;2023-04-15T01:41:25;1.15;;;1.15;;
50417;SDS011;36346;48.280;14.292;2023-04-15T01:43:55;0.93;;;0.93;;
50417;SDS011;36346;48.280;14.292;2023-04-15T01:46:24;0.91;;;0.91;;
50417;SDS011;36346;48.280;14.292;2023-04-15T01:48:54;1.02;;;1.02;;
50417;SDS011;36346;48.280;14.292;2023-04-15T01:51:26;1.12;;;1.12;;
50417;SDS011;36346;48.280;14.292;2023-04-15T01:53:55;0.99;;;0.99;;
50417;SDS011;36346;48.280;14.292;2023-04-15T01:56:24;1.01;;;1.01;;
50417;SDS011;36346;48.280;14.292;2023-04-15T01:58:54;0.82;;;0.82;;
50417;SDS011;36346;48.280;14.292;2023-04-15T02:01:23;1.09;;;1.09;;
50417;SDS011;36346;48.280;14.292;2023-04-15T02:03:53;0.98;;;0.98;;
50417;SDS011;36346;48.280;14.292;2023-04-15T02:06:22;1.15;;;1.15;;
50417;SDS011;36346;48.280;14.292;2023-04-15T02:08:52;1.16;;;1.16;;
50417;SDS011;36346;48.280;14.292;2023-04-15T02:11:21;1.23;;;1.23;;
50417;SDS011;36346;48.280;14.292;2023-04-15T02:13:52;0.97;;;0.97;;
50417;SDS011;36346;48.280;14.292;2023-04-15T02:16:21;0.87;;;0.87;;
50417;SDS011;36346;48.280;14.292;2023-04-15T02:18:52;0.80;;;0.80;;
50417;SDS011;36346;48.280;14.292;2023-04-15T02:21:21;0.89;;;0.89;;
50417;SDS011;36346;48.280;14.292;2023-04-15T02:23:51;1.02;;;1.02;;
50417;SDS011;36346;48.280;14.292;2023-04-15T02:26:21;1.09;;;1.09;;
50417;SDS011;36346;48.280;14.292;2023-04-15T02:28:55;0.93;;;0.93;;
50417;SDS011;36346;48.280;14.292;2023-04-15T02:31:24;0.77;;;0.77;;
50417;SDS011;36346;48.280;14.292;2023-04-15T02:33:54;0.74;;;0.74;;
50417;SDS011;36346;48.280;14.292;2023-04-15T02:36:23;0.66;;;0.66;;
50417;SDS011;36346;48.280;14.292;2023-04-15T02:38:52;0.76;;;0.76;;
50417;SDS011;36346;48.280;14.292;2023-04-15T02:41:21;0.86;;;0.86;;
50417;SDS011;36346;48.280;14.292;2023-04-15T02:43:54;0.62;;;0.62;;
50417;SDS011;36346;48.280;14.292;2023-04-15T02:46:24;0.79;;;0.79;;
50417;SDS011;36346;48.280;14.292;2023-04-15T02:48:55;0.57;;;0.57;;
50417;SDS011;36346;48.280;14.292;2023-04-15T02:51:25;0.59;;;0.59;;
50417;SDS011;36346;48.280;14.292;2023-04-15T02:53:59;0.57;;;0.57;;
50417;SDS011;36346;48.280;14.292;2023-04-15T02:56:29;0.59;;;0.59;;
50417;SDS011;36346;48.280;14.292;2023-04-15T02:58:58;0.63;;;0.63;;
50417;SDS011;36346;48.280;14.292;2023-04-15T03:01:28;0.69;;;0.69;;
50417;SDS011;36346;48.280;14.292;2023-04-15T03:03:57;0.63;;;0.63;;
50417;SDS011;36346;48.280;14.292;2023-04-15T03:06:26;0.64;;;0.64;;
50417;SDS011;36346;48.280;14.292;2023-04-15T03:08:55;0.96;;;0.96;;
50417;SDS011;36346;48.280;14.292;2023-04-15T03:11:25;0.84;;;0.84;;
50417;SDS011;36346;48.280;14.292;2023-04-15T03:13:55;0.98;;;0.98;;
50417;SDS011;36346;48.280;14.292;2023-04-15T03:16:33;0.92;;;0.92;;
50417;SDS011;36346;48.280;14.292;2023-04-15T03:19:02;0.97;;;0.97;;
50417;SDS011;36346;48.280;14.292;2023-04-15T03:21:33;0.83;;;0.83;;
50417;SDS011;36346;48.280;14.292;2023-04-15T03:24:03;0.84;;;0.84;;
50417;SDS011;36346;48.280;14.292;2023-04-15T03:26:33;0.87;;;0.87;;
50417;SDS011;36346;48.280;14.292;2023-04-15T03:29:09;0.95;;;0.95;;
50417;SDS011;36346;48.280;14.292;2023-04-15T03:31:40;0.96;;;0.96;;
50417;SDS011;36346;48.280;14.292;2023-04-15T03:34:09;0.87;;;0.87;;
50417;SDS011;36346;48.280;14.292;2023-04-15T03:36:39;0.83;;;0.83;;
50417;SDS011;36346;48.280;14.292;2023-04-15T03:39:08;0.85;;;0.85;;
50417;SDS011;36346;48.280;14.292;2023-04-15T03:41:38;0.82;;;0.82;;
50417;SDS011;36346;48.280;14.292;2023-04-15T03:44:07;0.98;;;0.98;;
50417;SDS011;36346;48.280;14.292;2023-04-15T03:46:36;0.75;;;0.75;;
50417;SDS011;36346;48.280;14.292;2023-04-15T03:49:05;0.77;;;0.77;;
50417;SDS011;36346;48.280;14.292;2023-04-15T03:51:35;0.89;;;0.89;;
50417;SDS011;36346;48.280;14.292;2023-04-15T03:54:04;0.69;;;0.69;;
50417;SDS011;36346;48.280;14.292;2023-04-15T03:56:34;0.71;;;0.71;;
50417;SDS011;36346;48.280;14.292;2023-04-15T03:59:03;0.82;;;0.82;;
50417;SDS011;36346;48.280;14.292;2023-04-15T04:01:32;0.82;;;0.82;;
50417;SDS011;36346;48.280;14.292;2023-04-15T04:04:01;0.81;;;0.81;;
50417;SDS011;36346;48.280;14.292;2023-04-15T04:06:30;0.82;;;0.82;;
50417;SDS011;36346;48.280;14.292;2023-04-15T04:09:00;0.82;;;0.82;;
50417;SDS011;36346;48.280;14.292;2023-04-15T04:11:29;0.85;;;0.85;;
50417;SDS011;36346;48.280;14.292;2023-04-15T04:13:59;0.89;;;0.89;;
50417;SDS011;36346;48.280;14.292;2023-04-15T04:16:28;0.79;;;0.79;;
50417;SDS011;36346;48.280;14.292;2023-04-15T04:18:58;0.86;;;0.86;;
50417;SDS011;36346;48.280;14.292;2023-04-15T04:21:27;0.92;;;0.92;;
50417;SDS011;36346;48.280;14.292;2023-04-15T04:23:56;0.89;;;0.89;;
50417;SDS011;36346;48.280;14.292;2023-04-15T04:26:26;0.91;;;0.91;;
50417;SDS011;36346;48.280;14.292;2023-04-15T04:28:55;1.05;;;1.05;;
50417;SDS011;36346;48.280;14.292;2023-04-15T04:31:25;1.03;;;1.03;;
50417;SDS011;36346;48.280;14.292;2023-04-15T04:33:55;0.91;;;0.91;;
50417;SDS011;36346;48.280;14.292;2023-04-15T04:36:24;0.99;;;0.99;;
50417;SDS011;36346;48.280;14.292;2023-04-15T04:38:54;0.87;;;0.87;;
50417;SDS011;36346;48.280;14.292;2023-04-15T04:41:23;1.03;;;1.03;;
50417;SDS011;36346;48.280;14.292;2023-04-15T04:43:53;1.04;;;1.04;;
50417;SDS011;36346;48.280;14.292;2023-04-15T04:46:22;1.19;;;1.19;;
50417;SDS011;36346;48.280;14.292;2023-04-15T04:48:51;1.17;;;1.17;;
50417;SDS011;36346;48.280;14.292;2023-04-15T04:51:20;0.99;;;0.99;;
50417;SDS011;36346;48.280;14.292;2023-04-15T04:53:50;0.93;;;0.93;;
50417;SDS011;36346;48.280;14.292;2023-04-15T04:56:19;1.05;;;1.05;;
50417;SDS011;36346;48.280;14.292;2023-04-15T04:58:48;0.97;;;0.97;;
50417;SDS011;36346;48.280;14.292;2023-04-15T05:01:17;1.17;;;1.17;;
50417;SDS011;36346;48.280;14.292;2023-04-15T05:03:47;1.21;;;1.21;;
50417;SDS011;36346;48.280;14.292;2023-04-15T05:06:16;1.24;;;1.24;;
50417;SDS011;36346;48.280;14.292;2023-04-15T05:08:45;1.40;;;1.40;;
50417;SDS011;36346;48.280;14.292;2023-04-15T05:11:14;1.21;;;1.21;;
50417;SDS011;36346;48.280;14.292;2023-04-15T05:13:43;1.09;;;1.09;;
50417;SDS011;36346;48.280;14.292;2023-04-15T05:16:13;1.07;;;1.07;;
50417;SDS011;36346;48.280;14.292;2023-04-15T05:18:42;1.07;;;1.07;;
50417;SDS011;36346;48.280;14.292;2023-04-15T05:21:11;1.24;;;1.24;;
50417;SDS011;36346;48.280;14.292;2023-04-15T05:23:40;1.06;;;1.06;;
50417;SDS011;36346;48.280;14.292;2023-04-15T05:26:10;1.09;;;1.09;;
50417;SDS011;36346;48.280;14.292;2023-04-15T05:28:39;1.12;;;1.12;;
50417;SDS011;36346;48.280;14.292;2023-04-15T05:31:08;1.24;;;1.24;;
50417;SDS011;36346;48.280;14.292;2023-04-15T05:33:37;1.39;;;1.39;;
50417;SDS011;36346;48.280;14.292;2023-04-15T05:36:06;1.34;;;1.34;;
50417;SDS011;36346;48.280;14.292;2023-04-15T05:38:36;1.65;;;1.65;;
50417;SDS011;36346;48.280;14.292;2023-04-15T05:41:06;1.80;;;1.80;;
50417;SDS011;36346;48.280;14.292;2023-04-15T05:43:35;1.85;;;1.85;;
50417;SDS011;36346;48.280;14.292;2023-04-15T05:46:04;1.77;;;1.77;;
50417;SDS011;36346;48.280;14.292;2023-04-15T05:48:34;1.50;;;1.50;;
50417;SDS011;36346;48.280;14.292;2023-04-15T05:51:03;1.52;;;1.52;;
50417;SDS011;36346;48.280;14.292;2023-04-15T05:53:32;1.36;;;1.36;;
50417;SDS011;36346;48.280;14.292;2023-04-15T05:56:02;1.27;;;1.27;;
50417;SDS011;36346;48.280;14.292;2023-04-15T05:58:31;1.49;;;1.49;;
50417;SDS011;36346;48.280;14.292;2023-04-15T06:01:01;1.51;;;1.51;;
50417;SDS011;36346;48.280;14.292;2023-04-15T06:03:30;1.48;;;1.48;;
50417;SDS011;36346;48.280;14.292;2023-04-15T06:06:00;1.20;;;1.20;;
50417;SDS011;36346;48.280;14.292;2023-04-15T06:08:30;1.18;;;1.18;;
50417;SDS011;36346;48.280;14.292;2023-04-15T06:10:59;1.25;;;1.25;;
50417;SDS011;36346;48.280;14.292;2023-04-15T06:13:29;1.38;;;1.38;;
50417;SDS011;36346;48.280;14.292;2023-04-15T06:15:58;1.16;;;1.16;;
50417;SDS011;36346;48.280;14.292;2023-04-15T06:18:27;1.76;;;1.76;;
50417;SDS011;36346;48.280;14.292;2023-04-15T06:20:57;0.96;;;0.96;;
50417;SDS011;36346;48.280;14.292;2023-04-15T06:23:26;1.51;;;1.50;;
50417;SDS011;36346;48.280;14.292;2023-04-15T06:25:55;1.47;;;1.44;;
50417;SDS011;36346;48.280;14.292;2023-04-15T06:28:25;0.70;;;0.69;;
50417;SDS011;36346;48.280;14.292;2023-04-15T06:30:55;0.73;;;0.72;;
50417;SDS011;36346;48.280;14.292;2023-04-15T06:33:24;0.87;;;0.86;;
50417;SDS011;36346;48.280;14.292;2023-04-15T06:35:53;0.92;;;0.91;;
50417;SDS011;36346;48.280;14.292;2023-04-15T06:38:23;0.99;;;0.98;;
50417;SDS011;36346;48.280;14.292;2023-04-15T06:40:52;0.78;;;0.78;;
50417;SDS011;36346;48.280;14.292;2023-04-15T06:43:21;4.87;;;4.86;;
50417;SDS011;36346;48.280;14.292;2023-04-15T06:45:50;3.92;;;3.88;;
50417;SDS011;36346;48.280;14.292;2023-04-15T06:48:20;0.83;;;0.82;;
50417;SDS011;36346;48.280;14.292;2023-04-15T06:50:50;0.97;;;0.97;;
50417;SDS011;36346;48.280;14.292;2023-04-15T06:53:20;0.86;;;0.86;;
50417;SDS011;36346;48.280;14.292;2023-04-15T06:55:49;0.86;;;0.86;;
50417;SDS011;36346;48.280;14.292;2023-04-15T06:58:19;0.98;;;0.98;;
50417;SDS011;36346;48.280;14.292;2023-04-15T07:00:48;1.19;;;1.19;;
50417;SDS011;36346;48.280;14.292;2023-04-15T07:03:17;1.33;;;1.33;;
50417;SDS011;36346;48.280;14.292;2023-04-15T07:05:46;1.65;;;1.65;;
50417;SDS011;36346;48.280;14.292;2023-04-15T07:08:16;1.52;;;1.52;;
50417;SDS011;36346;48.280;14.292;2023-04-15T07:10:46;1.32;;;1.32;;
50417;SDS011;36346;48.280;14.292;2023-04-15T07:13:15;1.46;;;1.46;;
50417;SDS011;36346;48.280;14.292;2023-04-15T07:15:45;1.56;;;1.56;;
50417;SDS011;36346;48.280;14.292;2023-04-15T07:18:14;1.57;;;1.57;;
50417;SDS011;36346;48.280;14.292;2023-04-15T07:20:44;1.24;;;1.24;;
50417;SDS011;36346;48.280;14.292;2023-04-15T07:23:13;1.18;;;1.18;;
50417;SDS011;36346;48.280;14.292;2023-04-15T07:25:42;1.30;;;1.30;;
50417;SDS011;36346;48.280;14.292;2023-04-15T07:28:11;1.51;;;1.51;;
50417;SDS011;36346;48.280;14.292;2023-04-15T07:30:40;1.12;;;1.12;;
50417;SDS011;36346;48.280;14.292;2023-04-15T07:33:10;1.22;;;1.22;;
50417;SDS011;36346;48.280;14.292;2023-04-15T07:35:39;1.27;;;1.27;;
50417;SDS011;36346;48.280;14.292;2023-04-15T07:38:09;0.95;;;0.95;;
50417;SDS011;36346;48.280;14.292;2023-04-15T07:40:41;1.03;;;1.03;;
50417;SDS011;36346;48.280;14.292;2023-04-15T07:43:10;0.91;;;0.90;;
50417;SDS011;36346;48.280;14.292;2023-04-15T07:45:41;1.74;;;1.73;;
50417;SDS011;36346;48.280;14.292;2023-04-15T07:48:10;1.98;;;1.86;;
50417;SDS011;36346;48.280;14.292;2023-04-15T07:50:39;0.97;;;0.90;;
50417;SDS011;36346;48.280;14.292;2023-04-15T07:53:09;6.27;;;6.07;;
50417;SDS011;36346;48.280;14.292;2023-04-15T07:55:38;0.81;;;0.79;;
50417;SDS011;36346;48.280;14.292;2023-04-15T07:58:07;0.71;;;0.70;;
50417;SDS011;36346;48.280;14.292;2023-04-15T08:00:37;0.61;;;0.60;;
50417;SDS011;36346;48.280;14.292;2023-04-15T08:03:06;0.66;;;0.65;;
50417;SDS011;36346;48.280;14.292;2023-04-15T08:05:36;0.67;;;0.66;;
50417;SDS011;36346;48.280;14.292;2023-04-15T08:08:05;0.87;;;0.86;;
50417;SDS011;36346;48.280;14.292;2023-04-15T08:10:34;1.07;;;1.06;;
50417;SDS011;36346;48.280;14.292;2023-04-15T08:13:04;0.87;;;0.86;;
50417;SDS011;36346;48.280;14.292;2023-04-15T08:15:33;1.10;;;1.09;;
50417;SDS011;36346;48.280;14.292;2023-04-15T08:18:03;1.26;;;1.25;;
50417;SDS011;36346;48.280;14.292;2023-04-15T08:20:32;1.18;;;1.17;;
50417;SDS011;36346;48.280;14.292;2023-04-15T08:23:01;1.20;;;1.19;;
50417;SDS011;36346;48.280;14.292;2023-04-15T08:25:31;1.39;;;1.38;;
50417;SDS011;36346;48.280;14.292;2023-04-15T08:28:02;1.22;;;1.22;;
50417;SDS011;36346;48.280;14.292;2023-04-15T08:30:33;1.25;;;1.24;;
50417;SDS011;36346;48.280;14.292;2023-04-15T08:33:02;1.65;;;1.64;;
50417;SDS011;36346;48.280;14.292;2023-04-15T08:35:31;1.31;;;1.30;;
50417;SDS011;36346;48.280;14.292;2023-04-15T08:38:00;0.99;;;0.99;;
50417;SDS011;36346;48.280;14.292;2023-04-15T08:40:32;0.97;;;0.97;;
50417;SDS011;36346;48.280;14.292;2023-04-15T08:43:17;1.21;;;1.21;;
50417;SDS011;36346;48.280;14.292;2023-04-15T08:45:50;1.17;;;1.17;;
50417;SDS011;36346;48.280;14.292;2023-04-15T08:48:20;1.13;;;1.13;;
50417;SDS011;36346;48.280;14.292;2023-04-15T08:50:52;1.24;;;1.24;;
50417;SDS011;36346;48.280;14.292;2023-04-15T08:53:21;1.44;;;1.44;;
50417;SDS011;36346;48.280;14.292;2023-04-15T08:55:52;1.72;;;1.72;;
50417;SDS011;36346;48.280;14.292;2023-04-15T08:58:25;1.70;;;1.70;;
50417;SDS011;36346;48.280;14.292;2023-04-15T09:00:55;1.96;;;1.96;;
50417;SDS011;36346;48.280;14.292;2023-04-15T09:03:25;1.51;;;1.50;;
50417;SDS011;36346;48.280;14.292;2023-04-15T09:05:54;1.53;;;1.53;;
50417;SDS011;36346;48.280;14.292;2023-04-15T09:08:25;1.77;;;1.76;;
50417;SDS011;36346;48.280;14.292;2023-04-15T09:10:54;1.72;;;1.71;;
50417;SDS011;36346;48.280;14.292;2023-04-15T09:13:23;1.86;;;1.86;;
50417;SDS011;36346;48.280;14.292;2023-04-15T09:15:53;1.67;;;1.66;;
50417;SDS011;36346;48.280;14.292;2023-04-15T09:18:30;1.39;;;1.39;;
50417;SDS011;36346;48.280;14.292;2023-04-15T09:21:05;1.85;;;1.84;;
50417;SDS011;36346;48.280;14.292;2023-04-15T09:23:40;1.53;;;1.52;;
50417;SDS011;36346;48.280;14.292;2023-04-15T09:30:32;1.49;;;1.49;;
50417;SDS011;36346;48.280;14.292;2023-04-15T09:33:05;1.50;;;1.50;;
50417;SDS011;36346;48.280;14.292;2023-04-15T09:35:38;2.36;;;2.36;;
50417;SDS011;36346;48.280;14.292;2023-04-15T09:38:08;3.97;;;3.96;;
50417;SDS011;36346;48.280;14.292;2023-04-15T09:40:40;1.76;;;1.75;;
50417;SDS011;36346;48.280;14.292;2023-04-15T09:43:10;1.88;;;1.86;;
50417;SDS011;36346;48.280;14.292;2023-04-15T09:48:20;1.72;;;1.71;;
50417;SDS011;36346;48.280;14.292;2023-04-15T09:50:50;4.15;;;4.15;;
50417;SDS011;36346;48.280;14.292;2023-04-15T09:53:22;4.55;;;4.53;;
50417;SDS011;36346;48.280;14.292;2023-04-15T09:55:57;1.91;;;1.91;;
50417;SDS011;36346;48.280;14.292;2023-04-15T09:58:30;1.90;;;1.90;;
50417;SDS011;36346;48.280;14.292;2023-04-15T10:01:02;1.91;;;1.91;;
50417;SDS011;36346;48.280;14.292;2023-04-15T10:03:34;1.71;;;1.71;;
50417;SDS011;36346;48.280;14.292;2023-04-15T10:06:06;1.58;;;1.58;;
50417;SDS011;36346;48.280;14.292;2023-04-15T10:08:37;1.71;;;1.71;;
50417;SDS011;36346;48.280;14.292;2023-04-15T10:11:08;1.49;;;1.49;;
50417;SDS011;36346;48.280;14.292;2023-04-15T10:13:39;2.15;;;2.15;;
50417;SDS011;36346;48.280;14.292;2023-04-15T10:16:12;1.76;;;1.76;;
50417;SDS011;36346;48.280;14.292;2023-04-15T10:18:45;1.49;;;1.49;;
50417;SDS011;36346;48.280;14.292;2023-04-15T10:21:16;1.78;;;1.78;;
50417;SDS011;36346;48.280;14.292;2023-04-15T10:23:47;1.73;;;1.73;;
50417;SDS011;36346;48.280;14.292;2023-04-15T10:26:18;1.36;;;1.36;;
50417;SDS011;36346;48.280;14.292;2023-04-15T10:28:48;1.45;;;1.45;;
50417;SDS011;36346;48.280;14.292;2023-04-15T10:31:19;2.72;;;2.72;;
50417;SDS011;36346;48.280;14.292;2023-04-15T10:33:50;3.49;;;3.49;;
50417;SDS011;36346;48.280;14.292;2023-04-15T10:36:21;8.84;;;8.74;;
50417;SDS011;36346;48.280;14.292;2023-04-15T10:38:51;8.85;;;8.76;;
50417;SDS011;36346;48.280;14.292;2023-04-15T10:41:26;3.40;;;3.36;;
50417;SDS011;36346;48.280;14.292;2023-04-15T10:44:02;4.28;;;4.26;;
50417;SDS011;36346;48.280;14.292;2023-04-15T10:46:34;2.79;;;2.79;;
50417;SDS011;36346;48.280;14.292;2023-04-15T10:51:37;3.12;;;3.12;;
50417;SDS011;36346;48.280;14.292;2023-04-15T10:54:16;4.06;;;4.06;;
50417;SDS011;36346;48.280;14.292;2023-04-15T11:02:40;3.52;;;3.52;;
50417;SDS011;36346;48.280;14.292;2023-04-15T11:05:22;3.44;;;3.44;;
50417;SDS011;36346;48.280;14.292;2023-04-15T11:08:12;3.11;;;3.11;;
50417;SDS011;36346;48.280;14.292;2023-04-15T11:15:40;2.80;;;2.80;;
50417;SDS011;36346;48.280;14.292;2023-04-15T11:20:45;2.87;;;2.87;;
50417;SDS011;36346;48.280;14.292;2023-04-15T11:23:19;2.84;;;2.84;;
50417;SDS011;36346;48.280;14.292;2023-04-15T11:26:15;2.86;;;2.86;;
50417;SDS011;36346;48.280;14.292;2023-04-15T11:28:45;3.02;;;3.02;;
50417;SDS011;36346;48.280;14.292;2023-04-15T11:31:15;3.40;;;3.40;;
50417;SDS011;36346;48.280;14.292;2023-04-15T11:33:52;3.49;;;3.49;;
50417;SDS011;36346;48.280;14.292;2023-04-15T11:36:23;3.42;;;3.42;;
50417;SDS011;36346;48.280;14.292;2023-04-15T11:38:56;3.27;;;3.27;;
50417;SDS011;36346;48.280;14.292;2023-04-15T11:41:26;2.95;;;2.95;;
50417;SDS011;36346;48.280;14.292;2023-04-15T11:43:56;3.06;;;3.06;;
50417;SDS011;36346;48.280;14.292;2023-04-15T11:46:29;2.85;;;2.85;;
50417;SDS011;36346;48.280;14.292;2023-04-15T11:48:59;2.70;;;2.70;;
50417;SDS011;36346;48.280;14.292;2023-04-15T11:51:32;2.62;;;2.62;;
50417;SDS011;36346;48.280;14.292;2023-04-15T11:54:01;2.83;;;2.83;;
50417;SDS011;36346;48.280;14.292;2023-04-15T11:56:30;2.62;;;2.62;;
50417;SDS011;36346;48.280;14.292;2023-04-15T11:58:58;2.64;;;2.64;;
50417;SDS011;36346;48.280;14.292;2023-04-15T17:39:54;2.58;;;2.58;;
50417;SDS011;36346;48.280;14.292;2023-04-15T17:42:42;3.03;;;3.03;;
50417;SDS011;36346;48.280;14.292;2023-04-15T17:45:30;4.10;;;4.10;;
50417;SDS011;36346;48.280;14.292;2023-04-15T17:48:18;4.23;;;4.23;;
50417;SDS011;36346;48.280;14.292;2023-04-15T17:51:07;4.34;;;4.34;;
50417;SDS011;36346;48.280;14.292;2023-04-15T17:53:54;5.03;;;5.03;;
50417;SDS011;36346;48.280;14.292;2023-04-15T17:56:42;5.86;;;5.85;;
50417;SDS011;36346;48.280;14.292;2023-04-15T17:59:30;6.69;;;6.68;;
50417;SDS011;36346;48.280;14.292;2023-04-15T18:02:20;7.02;;;7.01;;
50417;SDS011;36346;48.280;14.292;2023-04-15T18:05:08;8.10;;;8.10;;
50417;SDS011;36346;48.280;14.292;2023-04-15T18:07:56;6.24;;;6.24;;
50417;SDS011;36346;48.280;14.292;2023-04-15T18:10:44;6.95;;;6.93;;
50417;SDS011;36346;48.280;14.292;2023-04-15T18:13:32;7.83;;;7.82;;
50417;SDS011;36346;48.280;14.292;2023-04-15T18:16:20;7.51;;;7.51;;
50417;SDS011;36346;48.280;14.292;2023-04-15T18:19:08;7.11;;;7.10;;
50417;SDS011;36346;48.280;14.292;2023-04-15T18:21:37;6.86;;;6.85;;
50417;SDS011;36346;48.280;14.292;2023-04-15T18:24:05;5.76;;;5.76;;
50417;SDS011;36346;48.280;14.292;2023-04-15T18:26:33;5.05;;;5.05;;
50417;SDS011;36346;48.280;14.292;2023-04-15T18:29:01;5.40;;;5.40;;
50417;SDS011;36346;48.280;14.292;2023-04-15T18:31:29;4.67;;;4.67;;
50417;SDS011;36346;48.280;14.292;2023-04-15T18:33:58;4.49;;;4.49;;
50417;SDS011;36346;48.280;14.292;2023-04-15T18:40:34;4.05;;;4.05;;
50417;SDS011;36346;48.280;14.292;2023-04-15T18:43:03;4.00;;;4.00;;
50417;SDS011;36346;48.280;14.292;2023-04-15T18:45:31;4.41;;;4.41;;
50417;SDS011;36346;48.280;14.292;2023-04-15T18:47:59;4.39;;;4.39;;
50417;SDS011;36346;48.280;14.292;2023-04-15T18:50:27;4.58;;;4.58;;
50417;SDS011;36346;48.280;14.292;2023-04-15T18:52:55;4.73;;;4.72;;
50417;SDS011;36346;48.280;14.292;2023-04-15T18:55:23;4.77;;;4.77;;
50417;SDS011;36346;48.280;14.292;2023-04-15T18:57:51;4.95;;;4.94;;
50417;SDS011;36346;48.280;14.292;2023-04-15T19:00:23;5.19;;;5.17;;
50417;SDS011;36346;48.280;14.292;2023-04-15T19:02:50;5.21;;;5.20;;
50417;SDS011;36346;48.280;14.292;2023-04-15T19:05:19;5.23;;;5.23;;
50417;SDS011;36346;48.280;14.292;2023-04-15T19:07:48;5.01;;;5.01;;
50417;SDS011;36346;48.280;14.292;2023-04-15T19:10:16;4.83;;;4.83;;
50417;SDS011;36346;48.280;14.292;2023-04-15T19:12:45;4.62;;;4.62;;
50417;SDS011;36346;48.280;14.292;2023-04-15T19:15:13;4.61;;;4.61;;
50417;SDS011;36346;48.280;14.292;2023-04-15T19:17:41;4.50;;;4.50;;
50417;SDS011;36346;48.280;14.292;2023-04-15T19:20:09;5.07;;;5.07;;
50417;SDS011;36346;48.280;14.292;2023-04-15T19:22:37;5.10;;;5.10;;
50417;SDS011;36346;48.280;14.292;2023-04-15T19:25:05;4.92;;;4.92;;
50417;SDS011;36346;48.280;14.292;2023-04-15T19:27:33;4.80;;;4.80;;
50417;SDS011;36346;48.280;14.292;2023-04-15T19:30:01;5.07;;;5.07;;
50417;SDS011;36346;48.280;14.292;2023-04-15T19:32:30;5.45;;;5.45;;
50417;SDS011;36346;48.280;14.292;2023-04-15T19:34:58;5.61;;;5.61;;
50417;SDS011;36346;48.280;14.292;2023-04-15T19:37:26;5.03;;;5.03;;
50417;SDS011;36346;48.280;14.292;2023-04-15T19:39:54;5.59;;;5.59;;
50417;SDS011;36346;48.280;14.292;2023-04-15T19:42:22;5.41;;;5.41;;
50417;SDS011;36346;48.280;14.292;2023-04-15T19:44:50;5.72;;;5.72;;
50417;SDS011;36346;48.280;14.292;2023-04-15T19:47:18;5.90;;;5.90;;
50417;SDS011;36346;48.280;14.292;2023-04-15T19:49:46;5.82;;;5.82;;
50417;SDS011;36346;48.280;14.292;2023-04-15T19:52:14;5.66;;;5.66;;
50417;SDS011;36346;48.280;14.292;2023-04-15T19:54:42;6.05;;;6.05;;
50417;SDS011;36346;48.280;14.292;2023-04-15T19:57:09;5.96;;;5.96;;
50417;SDS011;36346;48.280;14.292;2023-04-15T19:59:37;6.22;;;6.22;;
50417;SDS011;36346;48.280;14.292;2023-04-15T20:02:05;6.56;;;6.56;;
50417;SDS011;36346;48.280;14.292;2023-04-15T20:04:33;6.13;;;6.13;;
50417;SDS011;36346;48.280;14.292;2023-04-15T20:07:01;6.29;;;6.29;;
50417;SDS011;36346;48.280;14.292;2023-04-15T20:09:29;6.46;;;6.46;;
50417;SDS011;36346;48.280;14.292;2023-04-15T20:11:57;6.47;;;6.47;;
50417;SDS011;36346;48.280;14.292;2023-04-15T20:14:45;6.08;;;6.08;;
50417;SDS011;36346;48.280;14.292;2023-04-15T20:17:13;6.29;;;6.29;;
50417;SDS011;36346;48.280;14.292;2023-04-15T20:19:41;5.97;;;5.97;;
50417;SDS011;36346;48.280;14.292;2023-04-15T20:22:09;6.16;;;6.16;;
50417;SDS011;36346;48.280;14.292;2023-04-15T20:24:37;6.54;;;6.54;;
50417;SDS011;36346;48.280;14.292;2023-04-15T20:27:05;6.72;;;6.72;;
50417;SDS011;36346;48.280;14.292;2023-04-15T20:29:32;6.50;;;6.50;;
50417;SDS011;36346;48.280;14.292;2023-04-15T20:32:00;6.67;;;6.67;;
50417;SDS011;36346;48.280;14.292;2023-04-15T20:34:28;6.66;;;6.66;;
50417;SDS011;36346;48.280;14.292;2023-04-15T20:36:57;6.37;;;6.37;;
50417;SDS011;36346;48.280;14.292;2023-04-15T20:39:25;6.25;;;6.25;;
50417;SDS011;36346;48.280;14.292;2023-04-15T20:41:53;6.14;;;6.14;;
50417;SDS011;36346;48.280;14.292;2023-04-15T20:44:21;5.81;;;5.81;;
50417;SDS011;36346;48.280;14.292;2023-04-15T20:46:49;5.54;;;5.54;;
50417;SDS011;36346;48.280;14.292;2023-04-15T20:49:17;5.76;;;5.76;;
50417;SDS011;36346;48.280;14.292;2023-04-15T20:51:45;5.76;;;5.76;;
50417;SDS011;36346;48.280;14.292;2023-04-15T20:54:12;6.14;;;6.14;;
50417;SDS011;36346;48.280;14.292;2023-04-15T20:56:41;6.23;;;6.23;;
50417;SDS011;36346;48.280;14.292;2023-04-15T20:59:09;6.79;;;6.79;;
50417;SDS011;36346;48.280;14.292;2023-04-15T21:01:37;5.94;;;5.94;;